createdAt,value
2019-05-07T00:02:36.706Z,7.27
2019-05-07T00:07:39.226Z,7.50
2019-05-07T00:12:43.116Z,8.40
2019-05-07T00:17:45.671Z,7.87
2019-05-07T00:22:48.701Z,7.17
2019-05-07T00:27:52.300Z,7.83
2019-05-07T00:32:54.956Z,7.87
2019-05-07T00:38:03.695Z,7.87
2019-05-07T00:43:13.974Z,7.90
2019-05-07T00:48:16.461Z,7.17
2019-05-07T00:53:19.219Z,7.67
2019-05-07T00:58:26.014Z,8.20
2019-05-07T01:03:27.152Z,7.90
2019-05-07T01:08:29.623Z,7.93
2019-05-07T01:13:32.383Z,8.00
2019-05-07T01:18:34.834Z,8.20
2019-05-07T01:23:37.631Z,6.77
2019-05-07T01:28:58.362Z,7.27
2019-05-07T01:40:17.822Z,8.67
2019-05-07T01:45:22.050Z,7.67
2019-05-07T01:50:32.333Z,7.97
2019-05-07T01:55:35.261Z,8.03
2019-05-07T02:00:37.707Z,9.20
2019-05-07T02:05:46.799Z,8.47
2019-05-07T02:11:02.930Z,7.23
2019-05-07T02:16:05.370Z,7.97
2019-05-07T02:21:07.775Z,7.60
2019-05-07T02:26:10.172Z,7.67
2019-05-07T02:31:15.098Z,7.90
2019-05-07T02:36:16.865Z,7.37
2019-05-07T02:41:23.530Z,8.13
2019-05-07T02:46:52.753Z,7.50
2019-05-07T02:52:03.816Z,7.57
2019-05-07T02:57:05.533Z,7.87
2019-05-07T03:02:07.976Z,8.70
2019-05-07T03:07:13.086Z,8.27
2019-05-07T03:12:14.624Z,7.90
2019-05-07T03:17:17.113Z,8.70
2019-05-07T03:22:22.880Z,8.20
2019-05-07T03:27:24.776Z,7.93
2019-05-07T03:32:37.708Z,8.33
2019-05-07T03:37:38.801Z,8.40
2019-05-07T03:42:43.836Z,8.43
2019-05-07T03:48:13.623Z,8.20
2019-05-07T03:53:15.398Z,7.03
2019-05-07T03:58:18.031Z,8.17
2019-05-07T04:03:24.447Z,7.73
2019-05-07T04:08:24.839Z,7.93
2019-05-07T04:13:27.287Z,8.30
2019-05-07T04:18:32.663Z,8.53
2019-05-07T04:23:34.552Z,7.83
2019-05-07T04:29:05.598Z,7.47
2019-05-07T04:34:26.602Z,7.73
2019-05-07T04:39:28.947Z,7.90
2019-05-07T04:44:33.171Z,8.03
2019-05-07T04:49:35.625Z,8.80
2019-05-07T04:54:38.419Z,9.73
2019-05-07T04:59:42.874Z,8.80
2019-05-07T05:04:46.183Z,8.33
2019-05-07T05:09:48.921Z,8.93
2019-05-07T05:14:52.454Z,11.03
2019-05-07T05:19:55.183Z,8.27
2019-05-07T05:25:12.142Z,8.33
2019-05-07T05:30:21.950Z,8.20
2019-05-07T05:35:24.683Z,7.67
2019-05-07T05:40:28.858Z,8.87
2019-05-07T05:45:37.170Z,9.40
2019-05-07T05:50:57.894Z,8.63
2019-05-07T05:56:04.307Z,9.47
2019-05-07T06:01:23.003Z,8.77
2019-05-07T06:06:33.728Z,9.77
2019-05-07T06:12:07.788Z,9.63
2019-05-07T06:17:16.781Z,10.67
2019-05-07T06:22:42.468Z,9.43
2019-05-07T06:27:44.973Z,8.60
2019-05-07T06:32:47.428Z,8.87
2019-05-07T06:37:52.023Z,7.40
2019-05-07T06:43:12.488Z,8.60
2019-05-07T06:48:14.952Z,6.20
2019-05-07T06:53:18.327Z,5.83
2019-05-07T06:58:22.679Z,6.00
2019-05-07T07:03:37.771Z,5.00
2019-05-07T07:08:48.747Z,5.07
2019-05-07T07:13:55.979Z,4.30
2019-05-07T07:18:58.452Z,4.70
2019-05-07T07:24:02.854Z,4.70
2019-05-07T07:29:06.272Z,5.07
2019-05-07T07:34:09.384Z,4.93
2019-05-07T07:39:12.741Z,4.97
2019-05-07T07:44:15.325Z,5.13
2019-05-07T07:49:18.097Z,4.93
2019-05-07T07:54:22.699Z,4.57
2019-05-07T07:59:56.332Z,4.97
2019-05-07T08:04:58.772Z,4.53
2019-05-07T08:10:02.565Z,4.77
2019-05-07T08:15:16.850Z,4.63
2019-05-07T08:20:13.700Z,4.80
2019-05-07T08:25:16.099Z,4.27
2019-05-07T08:30:22.378Z,4.93
2019-05-07T08:35:37.622Z,3.80
2019-05-07T08:40:41.869Z,4.67
2019-05-07T08:46:02.721Z,4.80
2019-05-07T08:51:05.145Z,4.43
2019-05-07T08:56:07.639Z,4.70
2019-05-07T09:01:11.868Z,4.40
2019-05-07T09:06:14.513Z,4.83
2019-05-07T09:11:17.476Z,4.57
2019-05-07T09:16:19.790Z,4.07
2019-05-07T09:21:22.752Z,3.87
2019-05-07T09:26:33.092Z,3.70
2019-05-07T09:31:57.855Z,3.17
2019-05-07T09:37:02.450Z,3.77
2019-05-07T09:42:05.738Z,3.87
2019-05-07T09:47:08.146Z,3.43
2019-05-07T09:52:12.250Z,3.00
2019-05-07T09:57:27.684Z,3.60
2019-05-07T10:02:19.087Z,3.57
2019-05-07T10:07:23.343Z,3.67
2019-05-07T10:12:34.777Z,4.07
2019-05-07T10:17:43.080Z,3.80
2019-05-07T10:22:46.494Z,3.57
2019-05-07T10:27:50.584Z,3.80
2019-05-07T10:32:52.983Z,3.67
2019-05-07T10:37:56.497Z,3.47
2019-05-07T10:42:59.011Z,3.70
2019-05-07T10:48:22.064Z,4.20
2019-05-07T10:53:24.667Z,3.97
2019-05-07T10:58:27.059Z,4.33
2019-05-07T11:03:32.202Z,3.40
2019-05-07T11:08:34.316Z,3.50
2019-05-07T11:13:36.723Z,4.73
2019-05-07T11:18:45.368Z,4.50
2019-05-07T11:23:47.759Z,4.30
2019-05-07T11:28:50.232Z,4.80
2019-05-07T11:33:52.591Z,4.57
2019-05-07T11:38:55.095Z,3.77
2019-05-07T11:44:03.504Z,4.13
2019-05-07T11:49:16.699Z,4.03
2019-05-07T11:54:19.378Z,3.57
2019-05-07T11:59:22.084Z,3.47
2019-05-07T12:04:27.887Z,3.60
2019-05-07T12:09:30.256Z,3.67
2019-05-07T12:14:34.959Z,4.20
2019-05-07T12:19:38.436Z,4.90
2019-05-07T12:24:41.881Z,5.17
2019-05-07T12:29:45.967Z,4.23
2019-05-07T12:34:55.407Z,4.57
2019-05-07T12:39:57.727Z,4.73
2019-05-07T12:45:02.374Z,4.40
2019-05-07T12:50:06.417Z,5.23
2019-05-07T12:55:43.259Z,4.97
2019-05-07T13:00:57.669Z,4.97
2019-05-07T13:06:00.047Z,4.60
2019-05-07T13:11:03.089Z,4.33
2019-05-07T13:16:07.412Z,4.63
2019-05-07T13:21:11.930Z,4.50
2019-05-07T13:26:14.403Z,4.40
2019-05-07T13:31:18.815Z,5.10
2019-05-07T13:36:22.299Z,4.03
2019-05-07T13:41:45.283Z,4.57
2019-05-07T13:46:50.126Z,4.20
2019-05-07T13:52:02.841Z,4.50
2019-05-07T13:56:57.730Z,4.63
2019-05-07T14:02:05.567Z,4.70
2019-05-07T14:07:09.210Z,4.57
2019-05-07T14:12:12.339Z,4.90
2019-05-07T14:17:15.143Z,4.63
2019-05-07T14:22:19.236Z,5.33
2019-05-07T14:27:21.955Z,4.73
2019-05-07T14:32:49.772Z,4.60
2019-05-07T14:37:56.020Z,4.53
2019-05-07T14:43:06.992Z,4.40
2019-05-07T14:48:09.408Z,4.20
2019-05-07T14:53:13.560Z,4.50
2019-05-07T14:58:16.404Z,5.08
2019-05-07T15:03:18.801Z,4.97
2019-05-07T15:08:21.989Z,4.83
2019-05-07T15:13:25.227Z,4.28
2019-05-07T15:18:46.504Z,4.70
2019-05-07T15:23:50.272Z,4.60
2019-05-07T15:29:02.005Z,4.75
2019-05-07T15:34:04.457Z,4.37
2019-05-07T15:39:07.260Z,4.37
2019-05-07T15:44:12.045Z,4.40
2019-05-07T15:49:14.657Z,4.05
2019-05-07T15:54:17.136Z,3.87
2019-05-07T15:59:22.481Z,4.20
2019-05-07T16:04:28.291Z,4.28
2019-05-07T16:09:43.096Z,4.60
2019-05-07T16:14:47.379Z,4.22
2019-05-07T16:19:53.154Z,3.95
2019-05-07T16:24:54.150Z,3.87
2019-05-07T16:29:56.649Z,4.20
2019-05-07T16:34:59.497Z,4.15
2019-05-07T16:40:04.623Z,5.62
2019-05-07T16:45:06.849Z,4.00
2019-05-07T16:50:13.171Z,4.33
2019-05-07T16:55:16.685Z,4.50
2019-05-07T17:00:24.965Z,4.40
2019-05-07T17:05:28.128Z,4.40
2019-05-07T17:10:32.293Z,4.73
2019-05-07T17:15:54.228Z,4.93
2019-05-07T17:20:57.867Z,4.57
2019-05-07T17:26:00.404Z,4.00
2019-05-07T17:31:03.186Z,4.35
2019-05-07T17:36:06.053Z,4.17
2019-05-07T17:41:13.074Z,4.20
2019-05-07T17:46:15.075Z,4.50
2019-05-07T17:51:38.062Z,5.50
2019-05-07T17:56:42.207Z,5.17
2019-05-07T18:02:02.892Z,5.07
2019-05-07T18:07:05.509Z,4.20
2019-05-07T18:12:11.933Z,4.70
2019-05-07T18:17:31.104Z,5.10
2019-05-07T18:22:33.519Z,4.87
2019-05-07T18:27:36.063Z,4.80
2019-05-07T18:32:43.148Z,5.03
2019-05-07T18:37:52.568Z,5.43
2019-05-07T18:42:57.365Z,5.80
2019-05-07T18:47:59.842Z,5.03
2019-05-07T18:53:02.924Z,5.03
2019-05-07T18:58:06.484Z,6.43
2019-05-07T19:03:09.470Z,5.70
2019-05-07T19:08:12.621Z,6.30
2019-05-07T19:13:15.140Z,5.83
2019-05-07T19:18:17.863Z,5.33
2019-05-07T19:23:22.111Z,5.70
2019-05-07T19:28:24.855Z,5.40
2019-05-07T19:39:05.540Z,6.13
2019-05-07T19:44:08.542Z,6.83
2019-05-07T19:49:12.133Z,5.87
2019-05-07T19:54:14.711Z,6.73
2019-05-07T19:59:19.539Z,6.40
2019-05-07T20:04:22.012Z,6.23
2019-05-07T20:09:28.906Z,6.73
2019-05-07T20:14:33.076Z,7.50
2019-05-07T20:19:35.673Z,6.53
2019-05-07T20:24:38.277Z,7.53
2019-05-07T20:29:42.797Z,7.00
2019-05-07T20:35:04.349Z,6.47
2019-05-07T20:40:14.013Z,7.40
2019-05-07T20:45:16.591Z,6.93
2019-05-07T20:50:19.041Z,6.90
2019-05-07T20:55:33.961Z,6.90
2019-05-07T21:00:55.851Z,7.40
2019-05-07T21:05:58.268Z,7.20
2019-05-07T21:11:02.503Z,6.93
2019-05-07T21:16:05.223Z,7.47
2019-05-07T21:21:07.692Z,8.20
2019-05-07T21:26:10.243Z,7.23
2019-05-07T21:31:13.651Z,6.93
2019-05-07T21:36:16.190Z,6.80
2019-05-07T21:41:18.637Z,8.43
2019-05-07T21:46:22.254Z,7.60
2019-05-07T21:51:25.012Z,8.43
2019-05-07T22:08:09.820Z,7.47
2019-05-07T22:13:13.467Z,7.67
2019-05-07T22:18:48.120Z,7.37
2019-05-07T22:23:52.200Z,7.73
2019-05-07T22:47:15.134Z,8.07
2019-05-07T22:52:18.615Z,7.90
2019-05-07T23:03:16.674Z,7.83
2019-05-07T23:08:19.267Z,9.17
2019-05-07T23:13:43.159Z,8.17
2019-05-07T23:18:45.666Z,7.80
2019-05-07T23:24:06.880Z,8.07
2019-05-07T23:29:22.868Z,8.50
2019-05-07T23:34:33.555Z,8.33
2019-05-07T23:57:14.906Z,8.93
